This is the latest recevied weather packets stored in our database for station/object IZ3ZOD-13. If no packets are shown the sender has not sent any weather packets the latest 10 day(s).
| Time | Temp. | Humidity | Pressure | Rain* | Wind** | Luminosity | Snow |
|---|---|---|---|---|---|---|---|
| 1777279443 | 20.56° C | 42% | 1019.7 hPa | 0 mm | - | - | - |
| 1777278723 | 20° C | 44% | 1019.7 hPa | 0 mm | - | - | - |
| 1777278483 | 20° C | 43% | 1019.7 hPa | 0 mm | - | - | - |
| 1777277284 | 19.44° C | 46% | 1019.8 hPa | 0 mm | - | - | - |
| 1777276804 | 19.44° C | 45% | 1019.6 hPa | 0 mm | - | - | - |
| 1777275363 | 18.33° C | 49% | 1019.6 hPa | 0 mm | - | - | - |
| 1777271044 | 16.67° C | 59% | 1019.6 hPa | 0 mm | - | - | - |
| 1777268164 | 15.56° C | 69% | 1019.1 hPa | 0 mm | - | - | - |
| 1777267684 | 15° C | 72% | 1019.1 hPa | 0 mm | - | - | - |
| 1777265524 | 13.33° C | 81% | 1018.8 hPa | 0 mm | - | - | - |
| 1777264803 | 13.33° C | 83% | 1018.8 hPa | 0 mm | - | - | - |
| 1777264084 | 12.78° C | 85% | 1018.6 hPa | 0 mm | - | - | - |
| 1777263974 | 12.78° C | 85% | 1018.7 hPa | 0 mm | - | - | - |
| 1777262164 | 12.78° C | 88% | 1018.5 hPa | 0 mm | - | - | - |
| 1777260963 | 13.33° C | 90% | 1018.3 hPa | 0 mm | - | - | - |
| 1777260243 | 13.33° C | 92% | 1018.4 hPa | 0 mm | - | - | - |
| 1777259284 | 13.33° C | 93% | 1018.1 hPa | 0 mm | - | - | - |
| 1777257604 | 13.89° C | 94% | 1018.4 hPa | 0 mm | - | - | - |
| 1777256643 | 13.89° C | 94% | 1018.2 hPa | 0 mm | - | - | - |
| 1777254484 | 14.44° C | 94% | 1018.2 hPa | 0 mm | - | - | - |
| 1777254244 | 13.89° C | 94% | 1018 hPa | 0 mm | - | - | - |
| 1777253763 | 14.44° C | 93% | 1018 hPa | 0 mm | - | - | - |
| 1777252804 | 15° C | 94% | 1018.1 hPa | 0 mm | - | - | - |
| 1777248963 | 15.56° C | 91% | 1018.1 hPa | 0 mm | - | - | - |
| 1777248003 | 16.11° C | 90% | 1018 hPa | 0 mm | - | - | - |
* Rain latest hour (hover to see other rain measurements)
** Current wind speed in m/s (hover to see current wind gust speed)